Time;durP1;ratioP1;P1;durP2;ratioP2;P2;SDS_P1;SDS_P2;PMS_P1;PMS_P2;Temp;Humidity;BMP_temperature;BMP_pressure;BME280_temperature;BME280_humidity;BME280_pressure;Samples;Min_cycle;Max_cycle;Signal;HPM_P1;HPM_P2
2022/08/04 00:01:04;;;;;;;0.70;0.70;;;20.10;99.90;;;;;;5035833;28;20840;-70
2022/08/04 00:04:02;;;;;;;0.65;0.65;;;20.20;99.90;;;;;;5029426;28;20429;-70
2022/08/04 00:06:37;;;;;;;0.80;0.80;;;20.30;99.90;;;;;;5021334;28;21675;-71
2022/08/04 00:09:19;;;;;;;1.05;0.82;;;20.40;99.90;;;;;;5023965;28;20473;-70
2022/08/04 00:11:48;;;;;;;0.80;0.80;;;20.40;99.90;;;;;;5025314;28;20439;-71
2022/08/04 00:14:18;;;;;;;1.50;0.70;;;20.50;99.90;;;;;;5007725;28;20431;-70
2022/08/04 00:16:51;;;;;;;0.80;0.70;;;20.40;99.90;;;;;;5018754;28;20428;-71
2022/08/04 00:19:30;;;;;;;0.80;0.80;;;20.40;99.90;;;;;;5023076;28;20526;-70
2022/08/04 00:22:06;;;;;;;0.77;0.77;;;20.30;99.90;;;;;;5022999;28;20445;-70
2022/08/04 00:24:34;;;;;;;0.80;0.80;;;20.20;99.90;;;;;;5030888;28;20452;-71
2022/08/04 00:27:01;;;;;;;0.90;0.90;;;20.20;99.90;;;;;;5043357;28;20433;-70
2022/08/04 00:29:29;;;;;;;0.90;0.90;;;20.20;99.90;;;;;;5028130;28;20458;-71
2022/08/04 00:31:56;;;;;;;0.60;0.60;;;20.30;99.90;;;;;;5029898;28;20822;-71
2022/08/04 00:34:28;;;;;;;0.52;0.52;;;20.40;99.90;;;;;;5037252;28;20995;-70
2022/08/04 00:36:56;;;;;;;0.60;0.60;;;20.50;99.90;;;;;;5032517;28;20432;-70
2022/08/04 00:39:24;;;;;;;0.80;0.80;;;20.60;99.90;;;;;;5029298;28;20523;-71
2022/08/04 00:41:51;;;;;;;0.93;0.93;;;20.60;99.90;;;;;;5067084;28;20474;-71
2022/08/04 00:44:37;;;;;;;0.75;0.75;;;20.70;99.90;;;;;;5033055;28;20433;-71
2022/08/04 00:47:14;;;;;;;0.73;0.73;;;20.70;99.90;;;;;;5037483;28;20534;-71
2022/08/04 00:49:53;;;;;;;0.70;0.70;;;20.80;99.90;;;;;;5034339;28;20441;-71
2022/08/04 00:52:47;;;;;;;0.68;0.68;;;20.90;99.90;;;;;;5033881;28;20527;-70
2022/08/04 00:55:50;;;;;;;0.70;0.70;;;20.90;99.90;;;;;;5035839;28;20435;-71
2022/08/04 00:58:38;;;;;;;0.90;0.90;;;20.90;99.90;;;;;;5031217;28;20652;-70
2022/08/04 01:01:13;;;;;;;0.90;0.90;;;20.90;99.90;;;;;;5033238;28;20434;-71
2022/08/04 01:04:14;;;;;;;0.60;0.60;;;20.90;99.90;;;;;;5029912;28;20495;-71
2022/08/04 01:07:00;;;;;;;0.88;0.88;;;20.80;99.90;;;;;;5057394;28;20437;-70
2022/08/04 01:09:33;;;;;;;0.63;0.63;;;20.70;99.90;;;;;;5038271;28;20424;-70
2022/08/04 01:12:08;;;;;;;0.68;0.68;;;20.70;99.90;;;;;;5043692;28;20424;-71
2022/08/04 01:14:42;;;;;;;0.70;0.70;;;20.70;99.90;;;;;;5049767;28;20514;-71
2022/08/04 01:17:28;;;;;;;0.90;0.90;;;20.70;99.90;;;;;;5051383;28;20431;-72
2022/08/04 01:20:06;;;;;;;0.70;0.70;;;20.80;99.90;;;;;;5054185;28;20425;-70
2022/08/04 01:23:09;;;;;;;0.70;0.70;;;20.80;99.90;;;;;;5053473;28;20427;-71
2022/08/04 01:26:06;;;;;;;0.85;0.85;;;20.80;99.90;;;;;;5051235;28;20423;-71
2022/08/04 01:29:14;;;;;;;0.60;0.60;;;20.80;99.90;;;;;;5042314;28;20417;-71
2022/08/04 01:31:47;;;;;;;0.60;0.57;;;20.80;99.90;;;;;;5052402;28;20425;-71
2022/08/04 01:34:17;;;;;;;0.70;0.70;;;20.70;99.90;;;;;;5058107;28;20434;-71
2022/08/04 01:37:01;;;;;;;1.30;0.70;;;20.70;99.90;;;;;;5050057;28;20431;-71
2022/08/04 01:39:40;;;;;;;0.50;0.50;;;20.70;99.90;;;;;;5049776;28;20425;-70
2022/08/04 01:42:09;;;;;;;0.60;0.60;;;20.70;99.90;;;;;;5043745;28;20573;-70
2022/08/04 01:44:38;;;;;;;0.60;0.60;;;20.70;99.90;;;;;;5029084;28;20435;-70
2022/08/04 01:47:08;;;;;;;0.82;0.82;;;20.70;99.90;;;;;;5023106;28;20431;-70
2022/08/04 01:49:37;;;;;;;0.73;0.73;;;20.50;99.90;;;;;;5034042;28;21197;-71
2022/08/04 01:52:09;;;;;;;0.80;0.80;;;20.20;99.90;;;;;;5034612;28;20430;-70
2022/08/04 01:54:39;;;;;;;0.70;0.70;;;20.10;99.90;;;;;;5020752;28;20535;-70
2022/08/04 01:57:08;;;;;;;1.00;0.77;;;20.00;99.90;;;;;;5033285;28;20440;-70
2022/08/04 01:59:59;;;;;;;0.70;0.70;;;20.00;99.90;;;;;;5023760;28;20432;-71
2022/08/04 02:02:26;;;;;;;0.80;0.80;;;19.90;99.90;;;;;;5029113;28;20441;-70
2022/08/04 02:04:52;;;;;;;0.73;0.73;;;19.80;99.90;;;;;;5033702;28;20436;-70
2022/08/04 02:07:46;;;;;;;0.60;0.60;;;19.70;99.90;;;;;;5035943;28;20803;-70
2022/08/04 02:10:44;;;;;;;0.57;0.57;;;19.50;99.90;;;;;;5038868;28;20431;-70
2022/08/04 02:13:27;;;;;;;0.60;0.60;;;19.30;99.90;;;;;;5024133;28;20522;-70
2022/08/04 02:16:06;;;;;;;0.80;0.80;;;19.20;99.90;;;;;;5021163;28;20470;-70
2022/08/04 02:18:50;;;;;;;0.60;0.60;;;19.10;99.90;;;;;;5019901;28;20435;-70
2022/08/04 02:21:19;;;;;;;0.90;0.80;;;19.00;99.90;;;;;;5032300;28;20429;-70
2022/08/04 02:23:52;;;;;;;0.70;0.70;;;18.90;99.90;;;;;;5023738;28;20439;-70
2022/08/04 02:26:24;;;;;;;0.70;0.70;;;18.90;99.90;;;;;;5034270;28;20421;-70
2022/08/04 02:28:57;;;;;;;0.70;0.70;;;19.00;99.90;;;;;;5044999;28;20494;-70
2022/08/04 02:31:31;;;;;;;0.80;0.80;;;19.00;99.90;;;;;;5028471;28;20434;-70
2022/08/04 02:34:08;;;;;;;0.70;0.70;;;19.00;99.90;;;;;;5023440;28;20452;-71
2022/08/04 02:36:41;;;;;;;0.82;0.73;;;19.20;99.90;;;;;;5038506;28;20427;-71
2022/08/04 02:39:10;;;;;;;0.70;0.70;;;19.30;99.90;;;;;;5029093;28;20426;-70
2022/08/04 02:41:39;;;;;;;0.80;0.80;;;19.50;99.90;;;;;;5017970;28;20440;-71
2022/08/04 02:44:07;;;;;;;0.70;0.70;;;19.60;99.90;;;;;;5025639;28;20807;-70
2022/08/04 02:46:38;;;;;;;0.70;0.70;;;19.60;99.90;;;;;;5012407;28;20433;-70
2022/08/04 02:49:08;;;;;;;0.75;0.75;;;19.60;99.90;;;;;;5026626;28;20463;-70
2022/08/04 02:51:43;;;;;;;0.80;0.80;;;19.60;99.90;;;;;;5035438;28;20440;-70
2022/08/04 02:54:13;;;;;;;1.33;0.85;;;19.50;99.90;;;;;;5035799;28;20466;-69
2022/08/04 02:56:51;;;;;;;1.05;0.90;;;19.40;99.90;;;;;;5031299;28;20454;-69
2022/08/04 02:59:24;;;;;;;0.75;0.75;;;19.20;99.90;;;;;;5035666;28;20913;-70
2022/08/04 03:01:55;;;;;;;0.80;0.80;;;19.10;99.90;;;;;;5024569;28;20436;-70
2022/08/04 03:04:54;;;;;;;0.57;0.57;;;19.10;99.90;;;;;;5028899;28;20433;-70
2022/08/04 03:07:56;;;;;;;0.70;0.70;;;19.10;99.90;;;;;;5025869;28;20845;-69
2022/08/04 03:10:54;;;;;;;0.90;0.90;;;19.20;99.90;;;;;;5033802;28;20871;-69
2022/08/04 03:13:39;;;;;;;0.63;0.63;;;19.30;99.90;;;;;;5033860;28;20912;-70
2022/08/04 03:16:20;;;;;;;0.80;0.80;;;19.30;99.90;;;;;;5025767;28;20442;-70
2022/08/04 03:19:09;;;;;;;1.00;0.83;;;19.30;99.90;;;;;;5028497;28;20847;-69
2022/08/04 03:21:45;;;;;;;0.75;0.75;;;19.40;99.90;;;;;;5039012;28;20423;-70
2022/08/04 03:24:30;;;;;;;0.90;0.90;;;19.50;99.90;;;;;;5036187;28;20437;-70
2022/08/04 03:27:30;;;;;;;0.80;0.80;;;19.60;99.90;;;;;;5020752;28;20942;-70
2022/08/04 03:30:18;;;;;;;0.80;0.80;;;19.60;99.90;;;;;;5029199;28;20437;-70
2022/08/04 03:32:51;;;;;;;0.70;0.70;;;19.60;99.90;;;;;;5032675;28;20504;-71
2022/08/04 03:35:55;;;;;;;0.60;0.60;;;19.50;99.90;;;;;;5027234;28;20450;-69
2022/08/04 03:38:50;;;;;;;0.77;0.77;;;19.20;99.90;;;;;;5047123;28;20453;-70
2022/08/04 03:41:53;;;;;;;0.75;0.75;;;19.00;99.90;;;;;;5032561;28;20431;-70
2022/08/04 03:45:07;;;;;;;0.80;0.80;;;18.80;99.90;;;;;;5016516;28;20443;-70
2022/08/04 03:48:24;;;;;;;0.85;0.85;;;18.60;99.90;;;;;;5032901;28;20917;-71
2022/08/04 03:54:16;;;;;;;0.88;0.88;;;18.60;99.90;;;;;;5028775;28;20999;-70
2022/08/04 03:57:21;;;;;;;1.13;1.02;;;18.70;99.90;;;;;;5033597;28;20529;-69
2022/08/04 04:00:07;;;;;;;0.90;0.90;;;18.90;99.90;;;;;;5011695;28;20768;-70
2022/08/04 04:02:46;;;;;;;1.10;1.10;;;19.00;99.90;;;;;;5022559;28;20435;-70
2022/08/04 04:05:40;;;;;;;0.80;0.80;;;19.10;99.90;;;;;;5027517;28;20430;-70
2022/08/04 04:08:55;;;;;;;0.90;0.90;;;19.10;99.90;;;;;;5031584;28;20434;-70
2022/08/04 04:11:55;;;;;;;0.97;0.97;;;19.10;99.90;;;;;;5022127;28;21017;-70
2022/08/04 04:14:44;;;;;;;0.90;0.90;;;19.20;99.90;;;;;;5031568;28;20444;-69
2022/08/04 04:17:32;;;;;;;0.80;0.80;;;19.20;99.90;;;;;;5027658;28;20810;-70
2022/08/04 04:20:15;;;;;;;0.80;0.80;;;19.20;99.90;;;;;;5046676;28;20429;-70
2022/08/04 04:23:05;;;;;;;0.90;0.90;;;19.30;99.90;;;;;;5026008;28;20458;-70
2022/08/04 04:26:03;;;;;;;1.10;1.10;;;19.40;99.90;;;;;;5013812;28;20962;-70
2022/08/04 04:28:57;;;;;;;1.05;1.00;;;19.40;99.90;;;;;;5010899;28;20531;-70
2022/08/04 04:32:13;;;;;;;0.90;0.90;;;19.40;99.90;;;;;;5030316;28;20436;-70
2022/08/04 04:34:49;;;;;;;0.80;0.80;;;19.50;99.90;;;;;;5039313;28;20435;-70
2022/08/04 04:37:36;;;;;;;1.00;1.00;;;19.60;99.90;;;;;;5014270;28;20438;-71
2022/08/04 04:40:28;;;;;;;1.08;1.08;;;19.60;99.90;;;;;;5023618;28;20434;-71
2022/08/04 04:43:25;;;;;;;0.98;0.98;;;19.70;99.90;;;;;;5015451;28;20435;-70
2022/08/04 04:46:22;;;;;;;0.90;0.90;;;19.80;99.90;;;;;;5017874;28;21201;-64
2022/08/04 04:48:52;;;;;;;0.82;0.82;;;19.80;99.90;;;;;;5015237;28;20434;-64
2022/08/04 04:51:27;;;;;;;1.00;1.00;;;19.80;99.90;;;;;;5019635;28;20445;-64
2022/08/04 04:54:05;;;;;;;1.00;1.00;;;19.90;99.90;;;;;;5050975;28;20437;-64
2022/08/04 04:56:46;;;;;;;0.90;0.90;;;20.00;99.90;;;;;;4978202;28;1859593;-65
2022/08/04 04:59:17;;;;;;;0.80;0.80;;;20.10;99.90;;;;;;5015462;28;20435;-64
2022/08/04 05:02:02;;;;;;;1.52;1.00;;;20.30;99.90;;;;;;5019433;28;20435;-64
2022/08/04 05:04:32;;;;;;;0.97;0.97;;;20.40;99.90;;;;;;5013235;28;20434;-64
2022/08/04 05:07:20;;;;;;;0.88;0.88;;;20.50;99.90;;;;;;5023015;28;20520;-64
2022/08/04 05:10:06;;;;;;;0.80;0.80;;;20.70;99.90;;;;;;5037725;28;20435;-64
2022/08/04 05:12:52;;;;;;;0.70;0.70;;;20.90;99.90;;;;;;5020119;28;20479;-64
2022/08/04 05:15:43;;;;;;;0.70;0.70;;;21.10;99.90;;;;;;5036244;28;20885;-64
2022/08/04 05:18:18;;;;;;;0.57;0.57;;;21.40;99.90;;;;;;5004565;28;21736;-64
2022/08/04 05:20:52;;;;;;;0.70;0.70;;;21.80;99.90;;;;;;5012805;28;21167;-63
2022/08/04 05:23:26;;;;;;;0.70;0.70;;;22.20;99.90;;;;;;5012098;28;20938;-64
2022/08/04 05:26:06;;;;;;;0.90;0.90;;;22.60;99.90;;;;;;5014128;28;20425;-64
2022/08/04 05:28:44;;;;;;;0.80;0.80;;;23.00;99.90;;;;;;5015162;28;20435;-64
2022/08/04 05:31:15;;;;;;;0.80;0.80;;;23.30;99.90;;;;;;5016503;28;20434;-63
2022/08/04 05:33:55;;;;;;;0.70;0.70;;;23.70;99.90;;;;;;5018055;28;20434;-64
2022/08/04 05:36:29;;;;;;;1.00;1.00;;;23.90;99.90;;;;;;5016088;28;20864;-64
2022/08/04 05:39:13;;;;;;;0.60;0.60;;;24.20;99.90;;;;;;5019225;28;20438;-63
2022/08/04 05:41:41;;;;;;;0.93;0.90;;;24.60;99.90;;;;;;5021433;28;20921;-63
2022/08/04 05:44:15;;;;;;;0.80;0.80;;;25.20;99.90;;;;;;5022580;28;20482;-62
2022/08/04 05:46:48;;;;;;;0.83;0.83;;;25.80;99.90;;;;;;5020876;28;20462;-63
2022/08/04 05:49:26;;;;;;;0.80;0.80;;;26.30;99.90;;;;;;5013621;28;20444;-63
2022/08/04 05:51:57;;;;;;;0.70;0.70;;;27.00;99.90;;;;;;5012272;28;20959;-63
2022/08/04 05:54:24;;;;;;;0.70;0.70;;;27.40;99.90;;;;;;5031785;28;20534;-63
2022/08/04 05:56:53;;;;;;;0.80;0.80;;;27.60;99.90;;;;;;5013043;28;20434;-63
2022/08/04 05:59:24;;;;;;;1.10;1.00;;;27.50;99.90;;;;;;5021588;28;20463;-63
2022/08/04 06:01:55;;;;;;;1.00;1.00;;;27.30;99.90;;;;;;5030594;28;20458;-63
2022/08/04 06:04:44;;;;;;;0.90;0.90;;;27.40;99.90;;;;;;5032475;28;20871;-63
2022/08/04 06:07:12;;;;;;;0.60;0.60;;;27.60;99.90;;;;;;5034062;28;20427;-63
2022/08/04 06:09:40;;;;;;;0.82;0.82;;;27.70;99.90;;;;;;5034593;28;20447;-63
2022/08/04 06:12:18;;;;;;;0.70;0.70;;;27.90;99.90;;;;;;5026015;28;20934;-63
2022/08/04 06:14:47;;;;;;;0.77;0.77;;;28.50;99.90;;;;;;5020595;28;20505;-65
2022/08/04 06:17:24;;;;;;;0.70;0.70;;;28.90;99.80;;;;;;5029531;28;20433;-63
2022/08/04 06:20:13;;;;;;;0.70;0.70;;;28.90;99.50;;;;;;5021120;28;20425;-64
2022/08/04 06:22:53;;;;;;;0.70;0.70;;;29.10;99.90;;;;;;5009008;28;20526;-64
2022/08/04 06:25:23;;;;;;;0.80;0.80;;;29.60;99.10;;;;;;5016409;28;20441;-64
2022/08/04 06:27:54;;;;;;;0.70;0.70;;;30.00;98.80;;;;;;5008656;28;20506;-64
2022/08/04 06:30:25;;;;;;;0.95;0.95;;;30.40;98.60;;;;;;5021843;28;20439;-65
2022/08/04 06:32:59;;;;;;;0.90;0.90;;;30.90;97.70;;;;;;5018291;28;20546;-62
2022/08/04 06:35:31;;;;;;;0.63;0.63;;;31.30;97.00;;;;;;5009983;28;20555;-62
2022/08/04 06:37:58;;;;;;;0.80;0.80;;;31.60;96.50;;;;;;5008053;28;20519;-62
2022/08/04 06:40:27;;;;;;;0.77;0.77;;;32.00;96.40;;;;;;5024791;28;20438;-62
2022/08/04 06:43:00;;;;;;;0.70;0.70;;;32.30;96.10;;;;;;5007966;28;20528;-62
2022/08/04 06:45:27;;;;;;;1.42;1.00;;;32.30;95.70;;;;;;5023138;28;20514;-62
2022/08/04 06:47:55;;;;;;;0.80;0.80;;;32.30;96.00;;;;;;5028165;28;20524;-62
2022/08/04 06:50:23;;;;;;;0.80;0.80;;;32.50;96.00;;;;;;5025417;28;20432;-61
2022/08/04 06:53:10;;;;;;;0.90;0.90;;;32.70;95.50;;;;;;5025222;28;20419;-61
2022/08/04 06:55:39;;;;;;;0.80;0.80;;;33.10;95.10;;;;;;5023209;28;20439;-62
2022/08/04 06:58:07;;;;;;;0.93;0.93;;;33.50;94.90;;;;;;5024993;28;20439;-62
2022/08/04 07:00:35;;;;;;;0.70;0.70;;;32.40;94.40;;;;;;5018043;28;20431;-62
2022/08/04 07:03:04;;;;;;;1.00;1.00;;;32.70;95.50;;;;;;5015148;28;20434;-62
2022/08/04 07:05:31;;;;;;;0.90;0.90;;;33.10;94.60;;;;;;5011050;28;20436;-61
2022/08/04 07:07:59;;;;;;;0.95;0.95;;;33.60;94.10;;;;;;5016776;28;20449;-62
2022/08/04 07:10:27;;;;;;;0.90;0.90;;;33.80;93.70;;;;;;5021234;28;20437;-62
2022/08/04 07:12:58;;;;;;;0.80;0.80;;;34.10;93.50;;;;;;5012487;28;20459;-61
2022/08/04 07:15:27;;;;;;;0.90;0.90;;;34.20;93.30;;;;;;5013083;28;20446;-62
2022/08/04 07:18:00;;;;;;;0.68;0.68;;;34.10;92.80;;;;;;5046560;28;20444;-61
2022/08/04 07:20:31;;;;;;;1.00;1.00;;;33.80;93.40;;;;;;5025873;28;20456;-61
2022/08/04 07:23:04;;;;;;;0.70;0.70;;;33.50;93.00;;;;;;5016858;28;20436;-61
2022/08/04 07:25:35;;;;;;;1.20;1.10;;;34.20;93.10;;;;;;5010741;28;20500;-61
2022/08/04 07:28:25;;;;;;;0.93;0.93;;;34.70;92.40;;;;;;5015432;28;20434;-62
2022/08/04 07:30:52;;;;;;;0.80;0.80;;;35.30;91.80;;;;;;5017147;28;20450;-62
2022/08/04 07:33:20;;;;;;;0.95;0.95;;;35.30;92.80;;;;;;5011604;28;20445;-63
2022/08/04 07:35:55;;;;;;;1.00;1.00;;;34.90;91.70;;;;;;5008335;28;20461;-62
2022/08/04 07:38:37;;;;;;;0.80;0.80;;;35.00;92.00;;;;;;5017276;28;20480;-62
2022/08/04 07:41:20;;;;;;;1.00;0.88;;;35.60;92.00;;;;;;5026434;28;20823;-62
2022/08/04 07:44:04;;;;;;;1.02;1.02;;;35.80;92.00;;;;;;5015122;28;20497;-63
2022/08/04 07:46:31;;;;;;;0.88;0.88;;;36.00;91.70;;;;;;5026642;28;20518;-62
2022/08/04 07:48:59;;;;;;;0.82;0.82;;;36.50;91.80;;;;;;5022968;28;20521;-62
2022/08/04 07:51:27;;;;;;;0.90;0.90;;;36.70;90.70;;;;;;5022153;28;20519;-63
2022/08/04 07:53:55;;;;;;;1.00;1.00;;;36.20;90.50;;;;;;5012178;28;20797;-62
2022/08/04 07:56:26;;;;;;;0.90;0.90;;;35.90;91.30;;;;;;5029805;28;20438;-62
2022/08/04 07:58:53;;;;;;;1.00;1.00;;;36.20;90.80;;;;;;5022437;28;20435;-62
2022/08/04 08:01:21;;;;;;;0.88;0.88;;;36.10;90.70;;;;;;5030020;28;20445;-62
2022/08/04 08:03:49;;;;;;;0.95;0.95;;;36.10;90.70;;;;;;5030818;28;20510;-62
2022/08/04 08:06:16;;;;;;;1.00;1.00;;;35.50;89.90;;;;;;5037687;28;20830;-63
2022/08/04 08:09:00;;;;;;;0.77;0.77;;;35.00;90.30;;;;;;5038240;28;20503;-62
2022/08/04 08:11:39;;;;;;;0.75;0.75;;;35.10;90.70;;;;;;5009386;28;20436;-62
2022/08/04 08:14:27;;;;;;;0.80;0.80;;;34.70;90.30;;;;;;5011274;28;20448;-62
2022/08/04 08:16:53;;;;;;;0.80;0.80;;;34.40;90.10;;;;;;5026388;28;21039;-62
2022/08/04 08:19:21;;;;;;;0.80;0.80;;;34.20;90.90;;;;;;5022566;28;20527;-63
2022/08/04 08:21:48;;;;;;;0.70;0.70;;;34.40;90.30;;;;;;5030880;28;20429;-62
2022/08/04 08:24:26;;;;;;;0.70;0.70;;;33.70;90.30;;;;;;5022330;28;20546;-62
2022/08/04 08:26:56;;;;;;;0.70;0.70;;;34.30;91.00;;;;;;5006804;28;20462;-62
2022/08/04 08:29:24;;;;;;;0.75;0.75;;;35.00;90.60;;;;;;5026699;28;20445;-62
2022/08/04 08:31:52;;;;;;;0.80;0.80;;;35.30;89.20;;;;;;5030516;28;20458;-61
2022/08/04 08:34:31;;;;;;;0.70;0.70;;;34.90;89.80;;;;;;5026788;28;20963;-60
2022/08/04 08:37:08;;;;;;;0.73;0.73;;;35.30;91.20;;;;;;5023255;28;20458;-60
2022/08/04 08:39:58;;;;;;;0.90;0.90;;;35.90;90.00;;;;;;5051163;28;20498;-61
2022/08/04 08:42:41;;;;;;;0.70;0.70;;;36.00;88.40;;;;;;5012896;28;20431;-61
2022/08/04 08:45:28;;;;;;;0.88;0.88;;;36.20;88.80;;;;;;5019733;28;20428;-61
2022/08/04 08:48:25;;;;;;;1.45;0.88;;;36.60;89.10;;;;;;5034199;28;20491;-61
2022/08/04 08:51:30;;;;;;;0.60;0.60;;;36.80;87.60;;;;;;5032326;28;20897;-61
2022/08/04 08:54:36;;;;;;;0.85;0.85;;;35.50;87.10;;;;;;5015105;28;20482;-61
2022/08/04 08:57:15;;;;;;;0.60;0.60;;;35.10;90.20;;;;;;5023348;28;20885;-61
2022/08/04 09:00:19;;;;;;;0.63;0.63;;;35.20;89.60;;;;;;5012035;28;21055;-61
2022/08/04 09:03:16;;;;;;;0.77;0.77;;;35.80;89.70;;;;;;5056609;28;20790;-61
2022/08/04 09:06:17;;;;;;;0.88;0.88;;;36.50;88.90;;;;;;5023715;28;20436;-62
2022/08/04 09:09:16;;;;;;;0.70;0.70;;;37.00;86.20;;;;;;5033206;28;20436;-62
2022/08/04 09:11:53;;;;;;;1.00;1.00;;;37.10;87.40;;;;;;5003849;28;20922;-62
2022/08/04 09:14:33;;;;;;;0.85;0.85;;;37.30;85.50;;;;;;5021152;28;20440;-62
2022/08/04 09:17:05;;;;;;;0.98;0.98;;;36.70;85.20;;;;;;5019008;28;20423;-62
2022/08/04 09:19:44;;;;;;;0.70;0.70;;;36.60;88.20;;;;;;5012581;28;20516;-61
2022/08/04 09:22:50;;;;;;;0.80;0.80;;;36.20;86.00;;;;;;5013242;28;20502;-61
2022/08/04 09:25:24;;;;;;;0.80;0.80;;;36.50;86.50;;;;;;5017855;28;20939;-62
2022/08/04 09:27:54;;;;;;;0.70;0.70;;;36.70;86.40;;;;;;5025322;28;20438;-62
2022/08/04 09:30:35;;;;;;;0.80;0.80;;;36.90;86.30;;;;;;5019828;28;20445;-61
2022/08/04 09:33:23;;;;;;;0.80;0.80;;;37.20;88.30;;;;;;5018205;28;20435;-61
2022/08/04 09:36:31;;;;;;;1.00;1.00;;;37.30;87.00;;;;;;5007893;28;20434;-61
2022/08/04 09:39:34;;;;;;;0.70;0.70;;;36.90;85.90;;;;;;5011273;28;20427;-62
2022/08/04 09:42:13;;;;;;;0.75;0.75;;;37.20;87.50;;;;;;4965171;28;20451;-61
2022/08/04 09:45:26;;;;;;;0.95;0.95;;;37.50;85.60;;;;;;4979916;28;20473;-61
2022/08/04 09:48:16;;;;;;;0.70;0.70;;;36.30;85.50;;;;;;4952199;28;20467;-62
2022/08/04 09:50:45;;;;;;;0.70;0.70;;;36.80;87.40;;;;;;4958594;28;20454;-61
2022/08/04 09:53:40;;;;;;;0.73;0.73;;;36.50;86.40;;;;;;4962443;28;20517;-61
2022/08/04 09:56:17;;;;;;;0.68;0.68;;;36.80;89.00;;;;;;4960606;28;20917;-61
2022/08/04 09:59:06;;;;;;;0.85;0.85;;;36.90;85.50;;;;;;4961775;28;20431;-62
2022/08/04 10:01:35;;;;;;;0.63;0.63;;;37.10;86.50;;;;;;4957973;28;20438;-62
2022/08/04 10:04:06;;;;;;;0.90;0.90;;;37.30;85.70;;;;;;4975856;28;20433;-61
2022/08/04 10:07:16;;;;;;;0.93;0.93;;;36.80;86.20;;;;;;4975773;28;20508;-61
2022/08/04 10:10:24;;;;;;;0.68;0.68;;;36.60;86.40;;;;;;4959982;28;20428;-62
2022/08/04 10:13:22;;;;;;;0.80;0.80;;;36.70;86.50;;;;;;4960125;28;20437;-61
2022/08/04 10:15:55;;;;;;;0.65;0.65;;;36.80;86.00;;;;;;4927199;28;20436;-62
2022/08/04 10:18:40;;;;;;;0.60;0.60;;;36.10;85.90;;;;;;4973459;28;20446;-61
2022/08/04 10:21:22;;;;;;;0.77;0.77;;;36.10;86.90;;;;;;4979607;28;20513;-61
2022/08/04 10:24:19;;;;;;;0.77;0.77;;;36.90;86.60;;;;;;4972669;28;20433;-61
2022/08/04 10:26:55;;;;;;;0.68;0.68;;;37.30;85.70;;;;;;5015522;28;20428;-61
2022/08/04 10:29:36;;;;;;;0.80;0.80;;;37.30;85.70;;;;;;5020161;28;21042;-62
2022/08/04 10:32:13;;;;;;;0.90;0.90;;;37.60;84.80;;;;;;5009309;28;20581;-62
2022/08/04 10:35:02;;;;;;;0.70;0.70;;;37.00;83.50;;;;;;5005289;28;20519;-62
2022/08/04 10:37:39;;;;;;;0.70;0.70;;;36.90;83.60;;;;;;5029863;28;20435;-61
2022/08/04 10:40:46;;;;;;;0.50;0.50;;;36.50;85.20;;;;;;5016790;28;20942;-61
2022/08/04 10:43:25;;;;;;;0.80;0.80;;;36.90;84.90;;;;;;5016910;28;20500;-61
2022/08/04 10:46:05;;;;;;;0.70;0.70;;;37.10;85.20;;;;;;5013208;28;20454;-61
2022/08/04 10:48:52;;;;;;;0.67;0.67;;;37.10;84.80;;;;;;5019193;28;20507;-62
2022/08/04 10:51:32;;;;;;;0.77;0.77;;;37.10;84.40;;;;;;5018721;28;20480;-62
2022/08/04 10:54:46;;;;;;;0.60;0.60;;;37.30;84.40;;;;;;5043878;28;20500;-62
2022/08/04 10:57:33;;;;;;;0.65;0.65;;;37.10;84.60;;;;;;5022478;28;20457;-61
2022/08/04 11:00:14;;;;;;;0.50;0.50;;;37.10;83.90;;;;;;5020664;28;20430;-62
2022/08/04 11:03:02;;;;;;;0.80;0.80;;;37.40;83.40;;;;;;5023097;28;20869;-62
2022/08/04 11:05:49;;;;;;;0.70;0.70;;;37.60;84.70;;;;;;5022028;28;20433;-63
2022/08/04 11:08:34;;;;;;;0.60;0.60;;;37.50;83.70;;;;;;5002641;28;20524;-63
2022/08/04 11:11:22;;;;;;;0.60;0.60;;;37.50;82.90;;;;;;5017999;28;21182;-62
2022/08/04 11:14:11;;;;;;;0.80;0.80;;;37.50;84.50;;;;;;5019955;28;20771;-62
2022/08/04 11:17:03;;;;;;;0.60;0.60;;;37.00;82.40;;;;;;5018524;28;20437;-62
2022/08/04 11:20:10;;;;;;;0.68;0.68;;;37.10;83.20;;;;;;5022348;28;20427;-62
2022/08/04 11:23:03;;;;;;;0.60;0.60;;;37.60;83.30;;;;;;5015847;28;20444;-62
2022/08/04 11:25:50;;;;;;;0.55;0.55;;;38.10;82.40;;;;;;5034041;28;20436;-62
2022/08/04 11:28:45;;;;;;;0.57;0.57;;;38.70;83.10;;;;;;5028939;28;21140;-62
2022/08/04 11:31:55;;;;;;;0.90;0.90;;;38.90;79.50;;;;;;5036562;28;20974;-63
2022/08/04 11:34:23;;;;;;;0.80;0.80;;;39.30;80.50;;;;;;5018930;28;20445;-62
2022/08/04 11:36:59;;;;;;;0.60;0.60;;;39.70;79.40;;;;;;5019822;28;20537;-62
2022/08/04 11:39:36;;;;;;;0.73;0.73;;;39.40;80.00;;;;;;5055328;28;20441;-62
2022/08/04 11:42:13;;;;;;;0.77;0.77;;;39.80;79.70;;;;;;5017249;28;20434;-63
2022/08/04 11:44:54;;;;;;;0.80;0.80;;;39.80;79.20;;;;;;5019739;28;20438;-62
2022/08/04 11:47:30;;;;;;;0.75;0.75;;;39.40;78.10;;;;;;5016524;28;20859;-62
2022/08/04 11:50:09;;;;;;;0.70;0.70;;;39.40;81.30;;;;;;5022908;28;20442;-63
2022/08/04 11:52:40;;;;;;;0.70;0.70;;;39.60;79.40;;;;;;5022763;28;20442;-62
2022/08/04 11:55:10;;;;;;;0.70;0.70;;;39.30;79.40;;;;;;5031589;28;20436;-63
2022/08/04 11:57:38;;;;;;;0.90;0.90;;;39.60;78.40;;;;;;5016851;28;20517;-63
2022/08/04 12:00:11;;;;;;;0.60;0.60;;;39.50;78.50;;;;;;5022270;28;20438;-63
2022/08/04 12:03:00;;;;;;;0.80;0.80;;;39.20;75.50;;;;;;5013677;28;20436;-65
2022/08/04 12:05:32;;;;;;;0.50;0.50;;;38.70;78.50;;;;;;5019661;28;20443;-63
2022/08/04 12:08:27;;;;;;;0.60;0.60;;;38.60;77.20;;;;;;5016124;28;20453;-63
2022/08/04 12:11:21;;;;;;;0.68;0.68;;;38.80;76.70;;;;;;5019776;28;20434;-62
2022/08/04 12:14:03;;;;;;;0.65;0.65;;;38.70;75.80;;;;;;5018799;28;20555;-63
2022/08/04 12:17:03;;;;;;;0.68;0.68;;;38.90;76.30;;;;;;5010480;28;20443;-63
2022/08/04 12:19:53;;;;;;;0.60;0.60;;;39.40;75.90;;;;;;5030756;28;20442;-63
2022/08/04 12:22:42;;;;;;;0.60;0.60;;;39.20;74.70;;;;;;5008901;28;20463;-62
2022/08/04 12:25:15;;;;;;;0.60;0.60;;;39.00;75.40;;;;;;5018443;28;20458;-63
2022/08/04 12:28:06;;;;;;;0.50;0.50;;;39.10;74.20;;;;;;5021449;28;20441;-63
2022/08/04 12:30:41;;;;;;;0.60;0.60;;;39.70;74.50;;;;;;5019020;28;20431;-63
2022/08/04 12:33:38;;;;;;;0.43;0.43;;;39.90;75.70;;;;;;5015079;28;20444;-63
2022/08/04 12:36:32;;;;;;;0.50;0.50;;;40.30;74.80;;;;;;5015986;28;20441;-63
2022/08/04 12:39:09;;;;;;;0.50;0.50;;;40.30;73.90;;;;;;5026770;28;21030;-63
2022/08/04 12:41:42;;;;;;;0.60;0.60;;;40.10;73.90;;;;;;5018646;28;20503;-62
2022/08/04 12:44:12;;;;;;;0.50;0.50;;;39.80;72.90;;;;;;5016802;28;20442;-63
2022/08/04 12:47:03;;;;;;;0.63;0.63;;;39.70;73.30;;;;;;5024801;28;20423;-71
2022/08/04 12:49:51;;;;;;;0.70;0.70;;;40.00;74.10;;;;;;5022191;28;20423;-72
2022/08/04 12:52:27;;;;;;;0.60;0.60;;;40.00;73.10;;;;;;5026688;28;20945;-73
2022/08/04 12:55:16;;;;;;;0.65;0.65;;;40.20;74.10;;;;;;5011887;28;21048;-69
2022/08/04 12:57:44;;;;;;;0.70;0.70;;;40.60;73.60;;;;;;5021723;28;20438;-70
2022/08/04 13:00:23;;;;;;;0.60;0.60;;;40.90;73.10;;;;;;5025115;28;20513;-70
2022/08/04 13:03:12;;;;;;;0.70;0.70;;;41.20;72.40;;;;;;5016805;28;20434;-71
2022/08/04 13:05:41;;;;;;;0.50;0.50;;;41.10;72.10;;;;;;5025024;28;20435;-70
2022/08/04 13:08:09;;;;;;;0.57;0.57;;;40.50;72.20;;;;;;5039589;28;20481;-73
2022/08/04 13:10:40;;;;;;;0.60;0.60;;;39.90;72.60;;;;;;5016639;28;20529;-71
2022/08/04 13:13:18;;;;;;;0.60;0.60;;;39.40;73.40;;;;;;5023582;28;20433;-74
2022/08/04 13:16:07;;;;;;;0.60;0.60;;;39.80;74.40;;;;;;5010509;28;20428;-76
2022/08/04 13:18:45;;;;;;;0.70;0.70;;;40.40;72.20;;;;;;5024789;28;20453;-74
2022/08/04 13:21:14;;;;;;;0.50;0.50;;;40.50;71.40;;;;;;5031694;28;20942;-79
2022/08/04 13:23:50;;;;;;;0.65;0.65;;;40.70;72.70;;;;;;5017839;28;20567;-77
2022/08/04 13:26:47;;;;;;;1.40;0.70;;;40.70;71.80;;;;;;5026734;28;20430;-74
2022/08/04 13:29:25;;;;;;;0.60;0.60;;;39.70;72.80;;;;;;5023213;28;20423;-76
2022/08/04 13:32:19;;;;;;;0.60;0.60;;;40.00;73.40;;;;;;5017072;28;20413;-75
2022/08/04 13:34:48;;;;;;;0.60;0.60;;;39.70;72.20;;;;;;5016863;28;20436;-78
2022/08/04 13:37:35;;;;;;;0.50;0.50;;;40.10;73.60;;;;;;5023138;28;20430;-77
2022/08/04 13:40:08;;;;;;;0.43;0.43;;;41.00;71.50;;;;;;5017777;28;20462;-78
2022/08/04 13:42:36;;;;;;;0.50;0.50;;;41.50;69.40;;;;;;5027478;28;20515;-80
2022/08/04 13:45:05;;;;;;;0.70;0.70;;;42.10;69.10;;;;;;5024768;28;20425;-79
2022/08/04 13:47:34;;;;;;;0.70;0.70;;;43.10;69.00;;;;;;5026738;28;20544;-75
2022/08/04 13:50:06;;;;;;;0.90;0.75;;;43.20;69.70;;;;;;5018761;28;20433;-76
2022/08/04 13:52:39;;;;;;;0.60;0.60;;;43.80;67.60;;;;;;5024482;28;20431;-77
2022/08/04 13:55:07;;;;;;;0.60;0.60;;;43.30;66.30;;;;;;5010308;28;20441;-74
2022/08/04 13:57:45;;;;;;;0.50;0.50;;;43.20;66.80;;;;;;5016479;28;20528;-78
2022/08/04 14:00:15;;;;;;;0.60;0.60;;;43.40;65.80;;;;;;5013797;28;20435;-74